Time;durP1;ratioP1;P1;durP2;ratioP2;P2;SDS_P1;SDS_P2;PMS_P1;PMS_P2;Temp;Humidity;BMP_temperature;BMP_pressure;BME280_temperature;BME280_humidity;BME280_pressure;Samples;Min_cycle;Max_cycle;Signal;HPM_P1;HPM_P2
2024/02/15 00:00:27;;;;;;;10.33;5.10;;;;;;;6.44;56.75;100922.75;5091302;28;20283;-60
2024/02/15 00:02:58;;;;;;;11.20;5.47;;;;;;;6.47;57.69;100927.91;5091561;28;20653;-58
2024/02/15 00:05:26;;;;;;;9.80;5.27;;;;;;;6.48;57.02;100927.06;5091434;28;20231;-60
2024/02/15 00:07:54;;;;;;;10.13;5.17;;;;;;;6.49;57.14;100923.72;5091356;28;20564;-59
2024/02/15 00:10:24;;;;;;;9.13;5.10;;;;;;;6.45;56.89;100922.78;5091281;28;20215;-57
2024/02/15 00:12:52;;;;;;;10.70;5.33;;;;;;;6.45;57.10;100920.22;5085590;28;20242;-59
2024/02/15 00:15:20;;;;;;;10.10;5.10;;;;;;;6.45;57.57;100921.94;5091118;28;20664;-60
2024/02/15 00:17:48;;;;;;;9.37;5.37;;;;;;;6.43;57.58;100923.59;5089991;28;20212;-60
2024/02/15 00:20:20;;;;;;;9.00;5.50;;;;;;;6.45;57.46;100927.91;5091076;28;20209;-63
2024/02/15 00:22:49;;;;;;;8.60;5.27;;;;;;;6.44;57.28;100925.28;5085544;28;20208;-62
2024/02/15 00:25:17;;;;;;;8.97;5.00;;;;;;;6.47;57.34;100927.91;5091117;28;20265;-58
2024/02/15 00:27:45;;;;;;;7.37;5.33;;;;;;;6.44;57.53;100925.28;5090721;28;20197;-58
2024/02/15 00:30:15;;;;;;;11.80;6.10;;;;;;;6.41;57.13;100922.72;5088566;28;20204;-61
2024/02/15 00:32:45;;;;;;;8.13;5.20;;;;;;;6.41;57.84;100925.25;5088668;28;20250;-59
2024/02/15 00:35:13;;;;;;;10.57;5.87;;;;;;;6.41;56.71;100927.81;5081608;28;20702;-59
2024/02/15 00:37:43;;;;;;;8.50;5.17;;;;;;;6.37;57.08;100923.44;5088900;28;20220;-61
2024/02/15 00:40:11;;;;;;;7.13;4.80;;;;;;;6.34;57.57;100925.97;5089149;28;20724;-59
2024/02/15 00:42:40;;;;;;;8.83;5.53;;;;;;;6.31;57.74;100928.47;5094833;28;20203;-58
2024/02/15 00:45:09;;;;;;;8.00;5.00;;;;;;;6.32;57.49;100927.63;5090529;28;20205;-58
2024/02/15 00:47:37;;;;;;;10.63;5.40;;;;;;;6.32;57.68;100928.50;5090814;28;20200;-58
2024/02/15 00:50:07;;;;;;;11.13;6.00;;;;;;;6.26;58.01;100926.69;5090410;28;20257;-60
2024/02/15 00:52:36;;;;;;;8.97;5.20;;;;;;;6.23;57.49;100926.63;5088311;28;20205;-60
2024/02/15 00:55:06;;;;;;;10.80;5.53;;;;;;;6.26;58.60;100923.28;5088724;28;20200;-59
2024/02/15 00:57:34;;;;;;;9.77;5.13;;;;;;;6.26;57.79;100916.44;5083617;28;20216;-62
2024/02/15 01:00:03;;;;;;;8.53;5.00;;;;;;;6.33;58.19;100919.97;5086562;28;20235;-61
2024/02/15 01:02:31;;;;;;;9.50;5.10;;;;;;;6.37;58.17;100923.44;5089389;28;20211;-61
2024/02/15 01:04:59;;;;;;;9.77;5.10;;;;;;;6.37;57.85;100921.78;5090355;28;20805;-62
2024/02/15 01:07:27;;;;;;;8.90;5.57;;;;;;;6.34;58.27;100918.31;5089902;28;20207;-59
2024/02/15 01:09:56;;;;;;;9.43;5.00;;;;;;;6.31;57.72;100916.53;5089214;28;20663;-58
2024/02/15 01:12:25;;;;;;;9.73;5.03;;;;;;;6.28;58.37;100922.44;5086446;28;20267;-58
2024/02/15 01:14:53;;;;;;;9.73;5.60;;;;;;;6.27;57.85;100922.44;5089939;28;20242;-60
2024/02/15 01:17:21;;;;;;;11.73;5.77;;;;;;;6.29;58.66;100918.19;5087715;28;20247;-59
2024/02/15 01:19:49;;;;;;;11.67;5.93;;;;;;;6.29;58.01;100921.59;5088565;28;20220;-60
2024/02/15 01:22:17;;;;;;;9.30;5.23;;;;;;;6.26;57.93;100916.44;5089923;28;20204;-60
2024/02/15 01:24:46;;;;;;;9.30;5.20;;;;;;;6.25;58.39;100924.94;5089859;28;20208;-59
2024/02/15 01:27:14;;;;;;;11.37;5.67;;;;;;;6.23;58.17;100923.19;5093577;28;20313;-58
2024/02/15 01:29:44;;;;;;;10.27;5.50;;;;;;;6.26;58.56;100921.56;5090884;28;20291;-59
2024/02/15 01:32:12;;;;;;;12.77;6.47;;;;;;;6.27;58.49;100918.16;5082728;28;20216;-59
2024/02/15 01:34:42;;;;;;;8.53;5.53;;;;;;;6.27;58.69;100912.19;5089252;28;20209;-61
2024/02/15 01:37:10;;;;;;;11.10;5.53;;;;;;;6.27;58.15;100912.19;5091109;28;20242;-61
2024/02/15 01:39:38;;;;;;;8.73;5.40;;;;;;;6.29;58.65;100903.69;5093419;28;20223;-59
2024/02/15 01:42:06;;;;;;;9.93;5.77;;;;;;;6.32;58.46;100907.16;5091200;28;20201;-59
2024/02/15 01:44:36;;;;;;;9.33;5.70;;;;;;;6.33;58.50;100903.75;5093303;28;20223;-58
2024/02/15 01:47:06;;;;;;;9.03;5.40;;;;;;;6.33;58.57;100903.75;5093061;28;20211;-59
2024/02/15 01:49:34;;;;;;;10.40;5.33;;;;;;;6.31;58.63;100903.72;5093366;28;20244;-59
2024/02/15 01:52:05;;;;;;;9.57;5.97;;;;;;;6.31;58.43;100898.63;5094071;28;20239;-62
2024/02/15 01:54:34;;;;;;;8.57;5.63;;;;;;;6.32;58.59;100896.91;5090608;28;20661;-58
2024/02/15 01:57:02;;;;;;;9.83;5.87;;;;;;;6.32;58.69;100894.34;5091698;28;20196;-59
2024/02/15 01:59:31;;;;;;;10.87;5.77;;;;;;;6.31;58.39;100897.75;5091853;28;20685;-59
2024/02/15 02:02:00;;;;;;;10.83;5.83;;;;;;;6.27;58.84;100894.28;5093595;28;20620;-60
2024/02/15 02:04:31;;;;;;;11.30;5.63;;;;;;;6.25;58.57;100899.34;5093638;28;20333;-59
2024/02/15 02:06:59;;;;;;;8.87;5.67;;;;;;;6.20;58.66;100895.84;5093919;28;20551;-58
2024/02/15 02:09:27;;;;;;;7.40;4.93;;;;;;;6.18;59.14;100887.25;5093065;28;20197;-59
2024/02/15 02:11:55;;;;;;;13.00;5.77;;;;;;;6.24;58.59;100897.63;5091797;28;20327;-58
2024/02/15 02:14:24;;;;;;;9.50;5.47;;;;;;;6.26;58.92;100880.63;5086276;28;20201;-60
2024/02/15 02:16:52;;;;;;;8.27;5.93;;;;;;;6.28;59.41;100878.06;5093847;28;20208;-58
2024/02/15 02:19:19;;;;;;;10.27;5.77;;;;;;;6.37;58.79;100885.06;5093167;28;20221;-62
2024/02/15 02:21:50;;;;;;;11.97;5.87;;;;;;;6.40;58.66;100892.81;5091542;28;20292;-59
2024/02/15 02:24:24;;;;;;;9.17;6.13;;;;;;;6.40;58.87;100885.13;5090162;28;20656;-60
2024/02/15 02:26:54;;;;;;;14.10;5.80;;;;;;;6.42;58.70;100888.59;5093274;28;20201;-59
2024/02/15 02:29:22;;;;;;;8.33;5.83;;;;;;;6.46;58.53;100887.81;5089928;28;20209;-62
2024/02/15 02:31:50;;;;;;;10.73;5.87;;;;;;;6.45;58.33;100886.94;5083867;28;20212;-65
2024/02/15 02:34:19;;;;;;;11.20;6.73;;;;;;;6.49;58.76;100893.00;5087194;28;20200;-60
2024/02/15 02:36:48;;;;;;;11.93;6.13;;;;;;;6.47;58.47;100887.81;5090997;28;20196;-61
2024/02/15 02:39:16;;;;;;;9.67;6.00;;;;;;;6.47;58.59;100884.41;5093234;28;20624;-59
2024/02/15 02:41:44;;;;;;;11.37;6.43;;;;;;;6.49;59.10;100888.72;5092736;28;20232;-63
2024/02/15 02:44:14;;;;;;;9.60;5.87;;;;;;;6.50;58.60;100884.47;5092943;28;20209;-61
2024/02/15 02:46:43;;;;;;;9.20;5.53;;;;;;;6.52;58.57;100887.94;5092890;28;20205;-60
2024/02/15 02:49:11;;;;;;;9.10;6.03;;;;;;;6.53;58.41;100890.50;5084438;28;20196;-59
2024/02/15 02:51:39;;;;;;;9.93;6.17;;;;;;;6.56;58.68;100891.41;5092735;28;20224;-58
2024/02/15 02:54:07;;;;;;;9.60;5.77;;;;;;;6.56;58.72;100887.16;5092835;28;20248;-58
2024/02/15 02:56:34;;;;;;;8.23;5.83;;;;;;;6.55;58.77;100887.97;5092045;28;20334;-60
2024/02/15 02:59:03;;;;;;;10.13;5.83;;;;;;;6.54;58.26;100881.13;5093533;28;20247;-61
2024/02/15 03:01:32;;;;;;;13.03;6.77;;;;;;;6.52;58.70;100880.25;5093117;28;20763;-60
2024/02/15 03:04:01;;;;;;;9.57;6.27;;;;;;;6.56;59.11;100881.16;5088947;28;20628;-60
2024/02/15 03:06:29;;;;;;;9.73;6.10;;;;;;;6.56;58.74;100879.47;5091746;28;20201;-59
2024/02/15 03:08:58;;;;;;;11.20;6.27;;;;;;;6.59;59.11;100884.66;5088541;28;20246;-59
2024/02/15 03:11:26;;;;;;;10.90;6.20;;;;;;;6.58;58.42;100892.28;5090830;28;20228;-61
2024/02/15 03:13:57;;;;;;;8.63;6.20;;;;;;;6.53;58.21;100885.38;5092012;28;20700;-60
2024/02/15 03:16:27;;;;;;;11.43;6.30;;;;;;;6.54;58.55;100889.66;5092313;28;20226;-62
2024/02/15 03:18:56;;;;;;;10.07;6.43;;;;;;;6.53;58.62;100894.75;5092033;28;20197;-60
2024/02/15 03:21:24;;;;;;;9.73;6.30;;;;;;;6.54;58.66;100891.38;5089748;28;20249;-59
2024/02/15 03:23:52;;;;;;;13.87;6.63;;;;;;;6.54;59.09;100894.78;5091973;28;20291;-57
2024/02/15 03:26:33;;;;;;;13.43;6.63;;;;;;;6.52;58.56;100904.16;5086022;28;20220;-60
2024/02/15 03:29:02;;;;;;;12.03;6.60;;;;;;;6.52;59.51;100899.03;5086590;28;20204;-60
2024/02/15 03:31:30;;;;;;;12.57;7.00;;;;;;;6.55;59.30;100898.19;5092107;28;20254;-58
2024/02/15 03:34:00;;;;;;;8.57;5.90;;;;;;;6.58;59.89;100902.53;5092035;28;20204;-62
2024/02/15 03:36:29;;;;;;;11.07;6.87;;;;;;;6.58;59.29;100898.25;5091007;28;20288;-59
2024/02/15 03:38:57;;;;;;;9.03;5.90;;;;;;;6.59;59.22;100892.34;5091044;28;20219;-60
2024/02/15 03:41:30;;;;;;;11.27;6.83;;;;;;;6.63;59.25;100895.78;5090027;28;20220;-58
2024/02/15 03:43:59;;;;;;;11.63;7.13;;;;;;;6.64;59.06;100887.28;5092062;28;20200;-60
2024/02/15 03:46:27;;;;;;;13.23;6.77;;;;;;;6.65;59.00;100889.00;5082297;28;20568;-62
2024/02/15 03:48:56;;;;;;;10.37;6.57;;;;;;;6.62;59.06;100889.81;5092871;28;20205;-60
2024/02/15 03:51:26;;;;;;;9.07;6.23;;;;;;;6.62;59.63;100888.94;5091895;28;20572;-58
2024/02/15 03:53:54;;;;;;;11.40;6.70;;;;;;;6.64;59.43;100883.03;5091374;28;20334;-59
2024/02/15 03:56:22;;;;;;;11.87;6.20;;;;;;;6.61;59.46;100888.09;5089845;28;20212;-59
2024/02/15 03:58:51;;;;;;;13.20;6.57;;;;;;;6.58;58.98;100885.47;5091606;28;20288;-60
2024/02/15 04:01:19;;;;;;;11.13;6.80;;;;;;;6.55;59.77;100882.84;5087924;28;20669;-61
2024/02/15 04:03:47;;;;;;;10.87;6.53;;;;;;;6.50;60.05;100885.31;5084516;28;20207;-59
2024/02/15 04:06:16;;;;;;;10.90;6.30;;;;;;;6.48;59.66;100884.44;5096075;28;20683;-60
2024/02/15 04:08:45;;;;;;;10.73;7.00;;;;;;;6.43;59.75;100882.63;5090666;28;20212;-59
2024/02/15 04:11:14;;;;;;;9.87;6.57;;;;;;;6.40;59.80;100883.41;5091375;28;20244;-60
2024/02/15 04:13:42;;;;;;;10.27;6.73;;;;;;;6.38;60.06;100884.25;5089343;28;20250;-60
2024/02/15 04:16:10;;;;;;;14.60;7.17;;;;;;;6.36;59.62;100878.22;5085983;28;20660;-60
2024/02/15 04:18:38;;;;;;;10.27;6.73;;;;;;;6.33;60.32;100876.47;5085062;28;20208;-63
2024/02/15 04:21:07;;;;;;;12.33;7.53;;;;;;;6.33;60.99;100880.72;5090650;28;20307;-59
2024/02/15 04:23:35;;;;;;;10.87;6.27;;;;;;;6.35;60.52;100881.63;5086626;28;20559;-59
2024/02/15 04:26:04;;;;;;;10.30;6.10;;;;;;;6.34;60.02;100882.47;5088797;28;20217;-60
2024/02/15 04:28:33;;;;;;;12.23;6.77;;;;;;;6.31;59.92;100872.16;5091233;28;20755;-58
2024/02/15 04:31:01;;;;;;;11.87;7.17;;;;;;;6.32;61.04;100889.25;5089438;28;20243;-58
2024/02/15 04:33:29;;;;;;;12.67;7.43;;;;;;;6.29;60.08;100875.53;5091405;28;20204;-59
2024/02/15 04:35:58;;;;;;;12.17;6.60;;;;;;;6.35;60.53;100889.31;5090690;28;20216;-65
2024/02/15 04:38:26;;;;;;;12.30;6.73;;;;;;;6.35;60.35;100881.63;5091406;28;20208;-60
2024/02/15 04:40:55;;;;;;;12.57;7.20;;;;;;;6.36;60.50;100881.63;5082735;28;20844;-60
2024/02/15 04:43:24;;;;;;;11.97;6.70;;;;;;;6.40;60.59;100882.56;5090935;28;20710;-59
2024/02/15 04:45:53;;;;;;;10.87;7.03;;;;;;;6.42;61.37;100881.75;5091799;28;20611;-60
2024/02/15 04:48:24;;;;;;;10.73;6.90;;;;;;;6.44;60.37;100881.78;5087068;28;20208;-61
2024/02/15 04:50:54;;;;;;;13.13;7.03;;;;;;;6.45;60.01;100883.53;5090730;28;20644;-58
2024/02/15 04:53:22;;;;;;;10.13;6.77;;;;;;;6.45;60.28;100892.06;5090371;28;20204;-59
2024/02/15 04:55:50;;;;;;;11.37;6.40;;;;;;;6.46;60.31;100882.69;5090966;28;20683;-59
2024/02/15 04:58:19;;;;;;;12.57;7.13;;;;;;;6.45;60.60;100886.09;5086301;28;20231;-59
2024/02/15 05:00:52;;;;;;;13.47;6.47;;;;;;;6.45;60.39;100888.66;5095057;28;20244;-61
2024/02/15 05:03:20;;;;;;;11.20;6.83;;;;;;;6.43;60.96;100887.75;5089375;28;20224;-61
2024/02/15 05:05:48;;;;;;;11.63;6.70;;;;;;;6.42;60.49;100891.16;5094244;28;20246;-58
2024/02/15 05:08:17;;;;;;;11.03;6.77;;;;;;;6.44;60.42;100895.47;5093677;28;20205;-60
2024/02/15 05:10:45;;;;;;;9.77;6.27;;;;;;;6.46;60.48;100892.94;5094844;28;20578;-59
2024/02/15 05:13:13;;;;;;;11.73;6.67;;;;;;;6.45;60.97;100889.50;5094642;28;20244;-59
2024/02/15 05:15:41;;;;;;;13.30;7.57;;;;;;;6.44;60.50;100885.22;5094652;28;20231;-60
2024/02/15 05:18:11;;;;;;;12.67;6.53;;;;;;;6.42;60.84;100878.34;5094425;28;20230;-60
2024/02/15 05:20:40;;;;;;;13.53;6.97;;;;;;;6.39;60.32;100881.69;5093142;28;20753;-59
2024/02/15 05:23:08;;;;;;;10.07;6.23;;;;;;;6.40;60.29;100891.09;5088448;28;20635;-60
2024/02/15 05:25:37;;;;;;;10.07;6.20;;;;;;;6.41;60.84;100882.59;5092485;28;20205;-61
2024/02/15 05:28:06;;;;;;;11.40;7.03;;;;;;;6.41;61.63;100889.44;5091143;28;20617;-59
2024/02/15 05:30:34;;;;;;;10.60;6.90;;;;;;;6.43;61.26;100888.59;5093556;28;20227;-62
2024/02/15 05:33:02;;;;;;;11.27;6.70;;;;;;;6.43;61.52;100898.84;5093816;28;20205;-59
2024/02/15 05:35:35;;;;;;;11.43;6.90;;;;;;;6.44;61.13;100900.59;5091408;28;20212;-58
2024/02/15 05:38:04;;;;;;;12.07;7.23;;;;;;;6.45;61.49;100899.75;5089938;28;20213;-59
2024/02/15 05:40:33;;;;;;;12.37;7.00;;;;;;;6.45;61.36;100902.31;5089404;28;20239;-60
2024/02/15 05:43:01;;;;;;;11.80;6.63;;;;;;;6.48;62.00;100904.94;5088369;28;20197;-63
2024/02/15 05:45:34;;;;;;;11.07;7.07;;;;;;;6.51;61.45;100897.28;5094330;28;20828;-59
2024/02/15 05:48:06;;;;;;;15.03;7.70;;;;;;;6.56;61.91;100905.06;5094610;28;20307;-60
2024/02/15 05:50:37;;;;;;;14.73;7.93;;;;;;;6.59;61.62;100904.25;5093625;28;20231;-62
2024/02/15 05:53:07;;;;;;;13.10;7.40;;;;;;;6.59;61.72;100914.47;5092590;28;20215;-59
2024/02/15 05:55:37;;;;;;;13.60;7.70;;;;;;;6.54;61.25;100911.84;5088374;28;20549;-60
2024/02/15 05:58:08;;;;;;;14.00;6.90;;;;;;;6.54;61.95;100907.59;5092171;28;20205;-58
2024/02/15 06:00:38;;;;;;;13.87;7.50;;;;;;;6.53;61.59;100915.25;5093398;28;20197;-62
2024/02/15 06:03:09;;;;;;;13.97;8.40;;;;;;;6.46;61.97;100910.84;5085781;28;20300;-59
2024/02/15 06:05:38;;;;;;;10.87;7.43;;;;;;;6.43;61.91;100915.91;5103030;28;20281;-60
2024/02/15 06:08:07;;;;;;;11.63;7.73;;;;;;;6.40;62.69;100913.28;5090727;28;20241;-59
2024/02/15 06:10:35;;;;;;;15.63;8.70;;;;;;;6.40;62.03;100913.28;5083706;28;20564;-61
2024/02/15 06:13:04;;;;;;;13.97;8.30;;;;;;;6.43;63.44;100915.91;5085117;28;20337;-61
2024/02/15 06:15:33;;;;;;;15.10;8.83;;;;;;;6.42;63.11;100922.72;5099539;28;20573;-60
2024/02/15 06:18:01;;;;;;;16.00;9.57;;;;;;;6.45;63.49;100924.50;5088903;28;20204;-61
2024/02/15 06:20:30;;;;;;;14.43;8.87;;;;;;;6.43;64.28;100915.91;5092678;28;20212;-61
2024/02/15 06:23:00;;;;;;;15.00;9.53;;;;;;;6.42;65.17;100926.97;5093442;28;20196;-60
2024/02/15 06:25:28;;;;;;;17.67;10.17;;;;;;;6.41;65.10;100935.50;5093343;28;20219;-60
2024/02/15 06:28:01;;;;;;;19.80;11.43;;;;;;;6.39;65.92;100934.59;5090574;28;20629;-59
2024/02/15 06:41:40;;;;;;;22.60;11.70;;;;;;;6.18;69.48;100923.09;5092409;28;20223;-60
2024/02/15 06:44:09;;;;;;;17.90;10.83;;;;;;;6.21;69.95;100933.38;5091495;28;20243;-58
2024/02/15 06:46:38;;;;;;;18.30;11.60;;;;;;;6.23;70.24;100930.88;5083271;28;20204;-59
2024/02/15 06:49:06;;;;;;;18.73;11.53;;;;;;;6.24;70.55;100938.56;5091220;28;20203;-59
2024/02/15 06:51:34;;;;;;;19.30;11.33;;;;;;;6.26;71.45;100926.69;5085456;28;21074;-61
2024/02/15 06:54:04;;;;;;;19.23;12.03;;;;;;;6.24;71.01;100927.47;5080711;28;20741;-58
2024/02/15 06:56:36;;;;;;;21.33;12.73;;;;;;;6.27;71.84;100933.53;5092972;28;20744;-64
2024/02/15 06:59:04;;;;;;;23.90;12.77;;;;;;;6.33;71.85;100934.47;5092601;28;20200;-60
2024/02/15 07:01:33;;;;;;;18.50;13.23;;;;;;;6.34;72.47;100929.41;5093601;28;20719;-61
2024/02/15 07:04:03;;;;;;;21.80;12.43;;;;;;;6.33;73.14;100937.03;5089608;28;20207;-59
2024/02/15 07:06:31;;;;;;;20.93;12.63;;;;;;;6.34;73.73;100944.75;5089460;28;20296;-59
2024/02/15 07:08:59;;;;;;;24.07;14.07;;;;;;;6.36;73.68;100942.22;5092337;28;20205;-58
2024/02/15 07:11:30;;;;;;;23.40;14.03;;;;;;;6.38;73.98;100946.53;5091476;28;20236;-57
2024/02/15 07:13:58;;;;;;;22.37;13.67;;;;;;;6.40;73.80;100949.97;5083586;28;20204;-59
2024/02/15 07:16:26;;;;;;;22.03;13.97;;;;;;;6.38;74.35;100951.66;5089464;28;20196;-64
2024/02/15 07:18:54;;;;;;;24.97;13.60;;;;;;;6.35;75.35;100955.84;5092898;28;20284;-60
2024/02/15 07:21:27;;;;;;;22.80;14.80;;;;;;;6.29;75.67;100957.44;5086900;28;20228;-59
2024/02/15 07:23:55;;;;;;;27.33;14.53;;;;;;;6.20;76.84;100954.69;5084018;28;20276;-58
2024/02/15 07:26:25;;;;;;;22.53;14.40;;;;;;;6.22;76.52;100964.94;5089664;28;20269;-62
2024/02/15 07:28:55;;;;;;;20.33;14.57;;;;;;;6.24;78.08;100961.59;5087396;28;20684;-60
2024/02/15 07:31:28;;;;;;;24.47;15.07;;;;;;;6.27;77.22;100964.22;5084742;28;20205;-59
2024/02/15 07:33:57;;;;;;;23.80;14.83;;;;;;;6.24;77.87;100958.19;5107331;28;20196;-59
2024/02/15 07:36:32;;;;;;;24.73;13.93;;;;;;;6.24;77.59;100959.03;5094494;28;20578;-59
2024/02/15 07:39:00;;;;;;;24.00;15.73;;;;;;;6.25;78.03;100960.75;5092357;28;20584;-60
2024/02/15 07:41:30;;;;;;;25.07;16.07;;;;;;;6.27;78.56;100965.94;5089127;28;20220;-60
2024/02/15 07:44:00;;;;;;;24.10;14.90;;;;;;;6.22;78.83;100962.41;5085546;28;20205;-59
2024/02/15 07:46:29;;;;;;;22.33;14.60;;;;;;;6.15;79.12;100956.31;5088932;28;20216;-58
2024/02/15 07:48:57;;;;;;;25.77;15.53;;;;;;;6.16;79.53;100960.59;5091334;28;20671;-60
2024/02/15 07:51:25;;;;;;;21.50;14.67;;;;;;;6.10;79.12;100960.44;5085205;28;20207;-59
2024/02/15 07:53:54;;;;;;;25.93;16.03;;;;;;;6.10;80.02;100955.31;5087797;28;20192;-59
2024/02/15 07:56:22;;;;;;;25.80;14.73;;;;;;;6.13;80.10;100957.09;5089969;28;20684;-59
2024/02/15 07:58:51;;;;;;;28.07;15.83;;;;;;;6.14;80.57;100948.59;5090166;28;20236;-58
2024/02/15 08:01:22;;;;;;;22.00;14.80;;;;;;;6.15;80.56;100948.63;5090260;28;21015;-58
2024/02/15 08:03:53;;;;;;;24.47;15.50;;;;;;;6.09;79.91;100951.06;5082271;28;20291;-59
2024/02/15 08:06:27;;;;;;;23.73;15.43;;;;;;;6.04;80.57;100945.00;5092861;28;20208;-60
2024/02/15 08:08:56;;;;;;;23.33;15.93;;;;;;;6.02;82.01;100947.50;5090624;28;20214;-59
2024/02/15 08:11:26;;;;;;;25.13;16.03;;;;;;;6.09;82.16;100950.19;5090886;28;20243;-59
2024/02/15 08:13:58;;;;;;;25.30;15.40;;;;;;;6.10;83.00;100946.78;5090437;28;20200;-58
2024/02/15 08:16:28;;;;;;;23.80;16.73;;;;;;;6.10;82.77;100951.91;5090261;28;20204;-59
2024/02/15 08:18:56;;;;;;;22.50;16.07;;;;;;;6.10;83.30;100949.34;5090753;28;20219;-61
2024/02/15 08:21:29;;;;;;;29.53;17.67;;;;;;;6.14;83.87;100949.44;5089338;28;20283;-59
2024/02/15 08:23:58;;;;;;;24.40;16.83;;;;;;;6.20;83.61;100951.28;5087121;28;20199;-64
2024/02/15 08:26:26;;;;;;;27.33;16.90;;;;;;;6.25;83.89;100957.34;5088907;28;20205;-61
2024/02/15 08:28:55;;;;;;;27.77;16.87;;;;;;;6.32;84.23;100955.78;5088044;28;20201;-58
2024/02/15 08:31:24;;;;;;;26.87;17.47;;;;;;;6.37;84.03;100959.28;5084427;28;20241;-59
2024/02/15 08:33:53;;;;;;;26.43;16.70;;;;;;;6.41;84.30;100961.09;5085487;28;20196;-58
2024/02/15 08:36:22;;;;;;;25.93;16.87;;;;;;;6.48;84.44;100968.03;5087142;28;20200;-59
2024/02/15 08:38:51;;;;;;;29.30;16.97;;;;;;;6.50;83.97;100951.03;5090418;28;20196;-61
2024/02/15 08:41:20;;;;;;;29.70;18.47;;;;;;;6.52;84.91;100957.91;5090729;28;20218;-59
2024/02/15 08:43:49;;;;;;;27.17;16.90;;;;;;;6.52;84.84;100957.91;5088648;28;20208;-61
2024/02/15 08:46:17;;;;;;;24.70;17.53;;;;;;;6.53;84.91;100957.06;5087589;28;20242;-59
2024/02/15 08:48:46;;;;;;;26.23;18.00;;;;;;;6.52;84.60;100959.63;5088674;28;20193;-60
2024/02/15 08:51:16;;;;;;;28.23;17.57;;;;;;;6.50;84.87;100962.13;5093011;28;20605;-59
2024/02/15 08:53:45;;;;;;;31.30;18.73;;;;;;;6.49;85.32;100962.13;5090234;28;20820;-58
2024/02/15 08:56:13;;;;;;;23.30;16.60;;;;;;;6.49;85.25;100970.66;5086585;28;20283;-64
2024/02/15 08:58:42;;;;;;;26.83;17.77;;;;;;;6.49;85.23;100965.53;5080460;28;20273;-60
2024/02/15 09:01:13;;;;;;;26.43;17.70;;;;;;;6.51;86.09;100968.97;5090729;28;20200;-60
2024/02/15 09:03:41;;;;;;;31.67;17.07;;;;;;;6.50;85.04;100967.25;5084559;28;20556;-60
2024/02/15 09:06:10;;;;;;;24.47;17.43;;;;;;;6.51;85.18;100984.31;5087042;28;20885;-60
2024/02/15 09:08:40;;;;;;;26.90;17.87;;;;;;;6.55;85.56;100977.56;5088511;28;20228;-62
2024/02/15 09:11:12;;;;;;;26.40;17.60;;;;;;;6.56;85.47;100975.91;5088723;28;20204;-59
2024/02/15 09:13:40;;;;;;;29.30;18.00;;;;;;;6.58;85.77;100980.19;5084907;28;20944;-59
2024/02/15 09:16:08;;;;;;;26.63;16.97;;;;;;;6.63;85.74;100972.59;5086924;28;20567;-58
2024/02/15 09:18:37;;;;;;;30.17;17.73;;;;;;;6.68;84.76;100976.13;5088381;28;20200;-59
2024/02/15 09:21:06;;;;;;;28.77;18.63;;;;;;;6.70;85.44;100982.13;5086459;28;20197;-59
2024/02/15 09:23:34;;;;;;;27.40;18.43;;;;;;;6.73;85.90;100975.38;5083585;28;20592;-58
2024/02/15 09:26:04;;;;;;;25.07;17.50;;;;;;;6.76;85.78;100975.44;5088033;28;20196;-58
2024/02/15 09:28:32;;;;;;;30.10;19.07;;;;;;;6.81;85.49;100977.22;5088088;28;20631;-60
2024/02/15 09:31:01;;;;;;;26.77;18.60;;;;;;;6.86;85.01;100978.19;5082274;28;20202;-61
2024/02/15 09:33:29;;;;;;;36.03;18.27;;;;;;;6.88;85.76;100981.63;5091777;28;20694;-59
2024/02/15 09:35:57;;;;;;;27.23;18.33;;;;;;;6.93;85.04;100990.28;5090934;28;20701;-59
2024/02/15 09:38:26;;;;;;;29.77;19.40;;;;;;;6.95;85.28;100993.69;5089061;28;20239;-60
2024/02/15 09:40:55;;;;;;;25.00;18.13;;;;;;;6.94;85.54;100989.44;5089659;28;20223;-60
2024/02/15 09:43:26;;;;;;;28.23;18.77;;;;;;;6.98;84.77;100991.22;5088825;28;20235;-61
2024/02/15 09:45:54;;;;;;;30.77;19.03;;;;;;;7.01;84.97;100987.00;5092219;28;20633;-62
2024/02/15 09:48:26;;;;;;;35.37;20.47;;;;;;;7.06;85.30;100994.75;5091909;28;20296;-59
2024/02/15 09:50:55;;;;;;;28.40;18.00;;;;;;;7.05;84.84;100992.19;5081866;28;20215;-61
2024/02/15 09:53:25;;;;;;;30.73;20.03;;;;;;;6.99;84.60;100983.53;5089884;28;20288;-59
2024/02/15 09:55:54;;;;;;;33.77;19.17;;;;;;;6.96;84.16;100982.66;5095349;28;20230;-58
2024/02/15 09:58:24;;;;;;;30.77;19.60;;;;;;;6.95;84.59;100983.47;5091111;28;20209;-62
2024/02/15 10:00:52;;;;;;;31.93;19.00;;;;;;;6.90;85.64;100983.38;5094139;28;20673;-60
2024/02/15 10:03:21;;;;;;;29.00;18.70;;;;;;;6.84;85.87;100980.69;5089666;28;20225;-59
2024/02/15 10:05:51;;;;;;;26.50;18.67;;;;;;;6.77;86.06;100977.19;5085874;28;20207;-59
2024/02/15 10:08:21;;;;;;;27.30;19.30;;;;;;;6.78;86.27;100980.59;5091034;28;20204;-58
2024/02/15 10:11:06;;;;;;;30.67;19.77;;;;;;;6.75;86.17;100973.72;5091725;28;20680;-60
2024/02/15 10:13:35;;;;;;;32.10;19.57;;;;;;;6.72;86.31;100972.78;5081068;28;20668;-60
2024/02/15 10:16:15;;;;;;;30.20;20.47;;;;;;;6.70;87.35;100970.22;5085349;28;20232;-61
2024/02/15 10:18:43;;;;;;;29.53;19.30;;;;;;;6.70;86.86;100970.22;5081141;28;20254;-62
2024/02/15 10:21:25;;;;;;;26.23;19.23;;;;;;;6.69;87.01;100973.59;5085988;28;20224;-60
2024/02/15 10:24:06;;;;;;;26.37;19.30;;;;;;;6.71;88.14;100976.19;5091115;28;20217;-58
2024/02/15 10:26:35;;;;;;;27.83;20.30;;;;;;;6.74;87.43;100966.88;5085333;28;20705;-61
2024/02/15 10:29:10;;;;;;;26.93;18.30;;;;;;;6.79;88.48;100966.94;5102030;28;20852;-61
2024/02/15 10:31:40;;;;;;;29.20;19.60;;;;;;;6.84;87.65;100964.47;5083283;28;20592;-59
2024/02/15 10:34:09;;;;;;;33.00;20.10;;;;;;;6.96;87.99;100963.00;5093881;28;20680;-61
2024/02/15 10:36:37;;;;;;;29.07;19.10;;;;;;;7.06;88.04;100964.00;5087682;28;20201;-61
2024/02/15 10:39:16;;;;;;;31.50;19.87;;;;;;;7.13;87.83;100960.72;5095642;28;20200;-60
2024/02/15 10:41:46;;;;;;;30.27;20.63;;;;;;;7.21;87.83;100955.72;5089693;28;20258;-61
2024/02/15 10:44:20;;;;;;;29.47;20.47;;;;;;;7.25;87.81;100958.38;5093163;28;20222;-59
2024/02/15 10:46:50;;;;;;;28.57;18.57;;;;;;;7.29;87.77;100953.28;5089824;28;20207;-59
2024/02/15 10:49:23;;;;;;;30.73;18.97;;;;;;;7.38;87.56;100961.13;5093248;28;20203;-62
2024/02/15 10:51:56;;;;;;;27.37;18.77;;;;;;;7.35;87.70;100945.69;5091319;28;20211;-59
2024/02/15 10:54:41;;;;;;;33.13;19.50;;;;;;;7.42;86.87;100948.38;5092451;28;20226;-60
2024/02/15 10:57:10;;;;;;;30.23;19.53;;;;;;;7.45;86.98;100947.59;5088203;28;20208;-60
2024/02/15 10:59:52;;;;;;;29.30;19.30;;;;;;;7.48;87.95;100947.63;5092846;28;20660;-64
2024/02/15 11:02:29;;;;;;;29.17;19.67;;;;;;;7.54;87.56;100951.97;5093197;28;20296;-59
2024/02/15 11:05:03;;;;;;;31.10;19.50;;;;;;;7.56;87.90;100943.47;5087814;28;20215;-59
2024/02/15 11:07:32;;;;;;;30.70;20.40;;;;;;;7.63;87.34;100952.13;5079168;28;20204;-58
2024/02/15 11:10:01;;;;;;;30.13;19.57;;;;;;;7.66;87.55;100947.91;5076100;28;20243;-59
2024/02/15 11:12:30;;;;;;;30.50;20.17;;;;;;;7.72;87.68;100962.50;5092652;28;20232;-63
2024/02/15 11:15:00;;;;;;;31.00;20.57;;;;;;;7.70;87.84;100949.69;5087183;28;20193;-59
2024/02/15 11:17:57;;;;;;;25.43;18.80;;;;;;;7.71;87.51;100951.41;5104391;28;20289;-59
2024/02/15 11:20:49;;;;;;;29.53;19.90;;;;;;;7.73;88.03;100942.03;5061687;28;20208;-60
2024/02/15 11:23:30;;;;;;;30.13;19.97;;;;;;;7.78;87.34;100941.22;5086274;28;20213;-61
2024/02/15 11:26:05;;;;;;;36.63;19.63;;;;;;;7.83;87.68;100939.59;5086314;28;20227;-61
2024/02/15 11:28:40;;;;;;;28.00;19.90;;;;;;;7.84;87.69;100931.03;5087677;28;20758;-60
2024/02/15 11:31:13;;;;;;;30.70;20.37;;;;;;;7.87;87.29;100925.94;5089854;28;20204;-62
2024/02/15 11:33:44;;;;;;;28.00;18.67;;;;;;;7.90;87.45;100923.44;5092117;28;20245;-60
2024/02/15 11:36:13;;;;;;;31.37;21.00;;;;;;;7.95;88.14;100926.91;5090023;28;20627;-63
2024/02/15 11:38:43;;;;;;;29.07;20.77;;;;;;;7.98;87.51;100924.38;5089713;28;20197;-60
2024/02/15 11:41:12;;;;;;;29.70;21.07;;;;;;;7.98;87.96;100916.69;5088229;28;20295;-61
2024/02/15 11:43:49;;;;;;;30.27;20.83;;;;;;;8.01;88.00;100919.31;5082158;28;20221;-61
2024/02/15 11:46:20;;;;;;;31.77;20.17;;;;;;;8.10;88.19;100919.44;5089224;28;20208;-59